sensor_id;sensor_type;location;lat;lon;timestamp;pressure;altitude;pressure_sealevel;temperature;humidity
68634;BME280;55625;47.072;22.192;2022-12-19T00:03:50;102120.22;;;-4.66;100.00
68634;BME280;55625;47.072;22.192;2022-12-19T00:06:18;102118.00;;;-4.64;100.00
68634;BME280;55625;47.072;22.192;2022-12-19T00:08:47;102124.34;;;-4.63;100.00
68634;BME280;55625;47.072;22.192;2022-12-19T00:11:15;102129.91;;;-4.63;100.00
68634;BME280;55625;47.072;22.192;2022-12-19T00:13:42;102123.53;;;-4.64;100.00
68634;BME280;55625;47.072;22.192;2022-12-19T00:16:18;102131.56;;;-4.62;100.00
68634;BME280;55625;47.072;22.192;2022-12-19T00:18:46;102133.19;;;-4.61;100.00
68634;BME280;55625;47.072;22.192;2022-12-19T00:21:16;102129.91;;;-4.63;100.00
68634;BME280;55625;47.072;22.192;2022-12-19T00:23:43;102128.25;;;-4.64;100.00
68634;BME280;55625;47.072;22.192;2022-12-19T00:26:13;102124.13;;;-4.67;100.00
68634;BME280;55625;47.072;22.192;2022-12-19T00:28:40;102129.66;;;-4.67;100.00
68634;BME280;55625;47.072;22.192;2022-12-19T00:31:08;102133.59;;;-4.73;100.00
68634;BME280;55625;47.072;22.192;2022-12-19T00:33:34;102131.41;;;-4.76;100.00
68634;BME280;55625;47.072;22.192;2022-12-19T00:36:03;102132.00;;;-4.79;100.00
68634;BME280;55625;47.072;22.192;2022-12-19T00:38:29;102126.81;;;-4.86;100.00
68634;BME280;55625;47.072;22.192;2022-12-19T00:41:08;102133.47;;;-4.87;100.00
68634;BME280;55625;47.072;22.192;2022-12-19T00:43:34;102122.69;;;-4.88;100.00
68634;BME280;55625;47.072;22.192;2022-12-19T00:46:10;102130.72;;;-4.92;100.00
68634;BME280;55625;47.072;22.192;2022-12-19T00:48:37;102127.13;;;-4.92;100.00
68634;BME280;55625;47.072;22.192;2022-12-19T00:51:12;102134.88;;;-4.94;100.00
68634;BME280;55625;47.072;22.192;2022-12-19T00:53:39;102133.00;;;-4.99;99.93
68634;BME280;55625;47.072;22.192;2022-12-19T00:56:09;102134.13;;;-5.00;100.00
68634;BME280;55625;47.072;22.192;2022-12-19T00:58:36;102128.63;;;-5.05;99.58
68634;BME280;55625;47.072;22.192;2022-12-19T01:01:42;102130.38;;;-5.14;98.78
68634;BME280;55625;47.072;22.192;2022-12-19T01:04:12;102124.59;;;-5.18;100.00
68634;BME280;55625;47.072;22.192;2022-12-19T01:06:39;102125.13;;;-5.16;100.00
68634;BME280;55625;47.072;22.192;2022-12-19T01:09:10;102127.88;;;-5.16;99.87
68634;BME280;55625;47.072;22.192;2022-12-19T01:11:36;102135.66;;;-5.18;99.99
68634;BME280;55625;47.072;22.192;2022-12-19T01:14:20;102134.81;;;-5.18;99.94
68634;BME280;55625;47.072;22.192;2022-12-19T01:16:46;102126.25;;;-5.17;100.00
68634;BME280;55625;47.072;22.192;2022-12-19T01:19:12;102128.47;;;-5.19;99.83
68634;BME280;55625;47.072;22.192;2022-12-19T01:21:38;102126.53;;;-5.18;99.53
68634;BME280;55625;47.072;22.192;2022-12-19T01:24:05;102126.00;;;-5.20;99.50
68634;BME280;55625;47.072;22.192;2022-12-19T01:26:31;102129.31;;;-5.23;98.97
68634;BME280;55625;47.072;22.192;2022-12-19T01:28:57;102126.53;;;-5.23;99.72
68634;BME280;55625;47.072;22.192;2022-12-19T01:31:22;102128.47;;;-5.24;99.45
68634;BME280;55625;47.072;22.192;2022-12-19T01:33:48;102121.59;;;-5.26;99.08
68634;BME280;55625;47.072;22.192;2022-12-19T01:36:14;102120.50;;;-5.31;99.41
68634;BME280;55625;47.072;22.192;2022-12-19T01:38:40;102113.88;;;-5.29;100.00
68634;BME280;55625;47.072;22.192;2022-12-19T01:41:06;102116.91;;;-5.31;99.58
68634;BME280;55625;47.072;22.192;2022-12-19T01:43:58;102111.97;;;-5.34;98.99
68634;BME280;55625;47.072;22.192;2022-12-19T01:46:53;102104.50;;;-5.34;99.55
68634;BME280;55625;47.072;22.192;2022-12-19T01:49:31;102107.78;;;-5.32;99.87
68634;BME280;55625;47.072;22.192;2022-12-19T01:52:08;102103.38;;;-5.33;99.83
68634;BME280;55625;47.072;22.192;2022-12-19T01:54:36;102097.00;;;-5.33;99.87
68634;BME280;55625;47.072;22.192;2022-12-19T01:57:10;102099.78;;;-5.33;99.78
68634;BME280;55625;47.072;22.192;2022-12-19T01:59:52;102100.06;;;-5.35;99.64
68634;BME280;55625;47.072;22.192;2022-12-19T02:02:30;102101.75;;;-5.39;98.93
68634;BME280;55625;47.072;22.192;2022-12-19T02:04:58;102094.81;;;-5.36;100.00
68634;BME280;55625;47.072;22.192;2022-12-19T02:07:26;102098.41;;;-5.36;99.57
68634;BME280;55625;47.072;22.192;2022-12-19T02:09:54;102097.06;;;-5.38;98.57
68634;BME280;55625;47.072;22.192;2022-12-19T02:12:22;102101.22;;;-5.41;99.41
68634;BME280;55625;47.072;22.192;2022-12-19T02:14:49;102104.00;;;-5.41;99.73
68634;BME280;55625;47.072;22.192;2022-12-19T02:20:42;102096.28;;;-5.44;99.57
68634;BME280;55625;47.072;22.192;2022-12-19T02:27:17;102102.38;;;-5.47;98.63
68634;BME280;55625;47.072;22.192;2022-12-19T02:35:53;102111.84;;;-5.58;98.87
68634;BME280;55625;47.072;22.192;2022-12-19T02:41:14;102105.53;;;-5.64;98.35
68634;BME280;55625;47.072;22.192;2022-12-19T02:43:47;102105.22;;;-5.62;99.19
68634;BME280;55625;47.072;22.192;2022-12-19T02:46:16;102109.41;;;-5.65;99.23
68634;BME280;55625;47.072;22.192;2022-12-19T02:48:43;102111.59;;;-5.62;99.63
68634;BME280;55625;47.072;22.192;2022-12-19T02:51:09;102107.44;;;-5.59;99.50
68634;BME280;55625;47.072;22.192;2022-12-19T02:53:36;102116.53;;;-5.58;99.55
68634;BME280;55625;47.072;22.192;2022-12-19T02:59:21;102110.47;;;-5.60;99.50
68634;BME280;55625;47.072;22.192;2022-12-19T03:02:13;102105.22;;;-5.62;99.24
68634;BME280;55625;47.072;22.192;2022-12-19T03:05:13;102099.75;;;-5.67;98.83
68634;BME280;55625;47.072;22.192;2022-12-19T03:10:46;102107.53;;;-5.74;99.09
68634;BME280;55625;47.072;22.192;2022-12-19T03:13:20;102116.41;;;-5.77;98.56
68634;BME280;55625;47.072;22.192;2022-12-19T03:15:48;102103.16;;;-5.80;98.82
68634;BME280;55625;47.072;22.192;2022-12-19T03:18:14;102102.56;;;-5.82;98.52
68634;BME280;55625;47.072;22.192;2022-12-19T03:21:12;102097.91;;;-5.87;98.73
68634;BME280;55625;47.072;22.192;2022-12-19T03:23:40;102102.91;;;-5.89;98.70
68634;BME280;55625;47.072;22.192;2022-12-19T03:26:11;102097.38;;;-5.89;98.40
68634;BME280;55625;47.072;22.192;2022-12-19T03:29:00;102096.56;;;-5.89;98.58
68634;BME280;55625;47.072;22.192;2022-12-19T03:31:29;102100.97;;;-5.88;99.21
68634;BME280;55625;47.072;22.192;2022-12-19T03:34:00;102098.19;;;-5.88;98.76
68634;BME280;55625;47.072;22.192;2022-12-19T03:36:33;102112.00;;;-5.88;99.12
68634;BME280;55625;47.072;22.192;2022-12-19T03:39:03;102110.91;;;-5.87;98.85
68634;BME280;55625;47.072;22.192;2022-12-19T03:41:31;102113.38;;;-5.86;98.77
68634;BME280;55625;47.072;22.192;2022-12-19T03:44:18;102115.31;;;-5.86;98.88
68634;BME280;55625;47.072;22.192;2022-12-19T03:46:55;102119.75;;;-5.85;99.40
68634;BME280;55625;47.072;22.192;2022-12-19T03:49:22;102120.56;;;-5.85;98.58
68634;BME280;55625;47.072;22.192;2022-12-19T03:55:09;102120.03;;;-5.87;98.22
68634;BME280;55625;47.072;22.192;2022-12-19T03:57:43;102117.50;;;-5.83;99.13
68634;BME280;55625;47.072;22.192;2022-12-19T04:00:14;102122.50;;;-5.80;100.00
68634;BME280;55625;47.072;22.192;2022-12-19T04:02:46;102114.22;;;-5.80;99.47
68634;BME280;55625;47.072;22.192;2022-12-19T04:05:22;102116.69;;;-5.79;99.08
68634;BME280;55625;47.072;22.192;2022-12-19T04:07:52;102119.75;;;-5.80;99.29
68634;BME280;55625;47.072;22.192;2022-12-19T04:10:23;102115.31;;;-5.81;99.52
68634;BME280;55625;47.072;22.192;2022-12-19T04:13:12;102126.38;;;-5.81;100.00
68634;BME280;55625;47.072;22.192;2022-12-19T04:16:09;102121.69;;;-5.81;99.47
68634;BME280;55625;47.072;22.192;2022-12-19T04:18:39;102108.38;;;-5.79;99.90
68634;BME280;55625;47.072;22.192;2022-12-19T04:21:14;102117.22;;;-5.77;99.74
68634;BME280;55625;47.072;22.192;2022-12-19T04:23:50;102115.56;;;-5.78;99.65
68634;BME280;55625;47.072;22.192;2022-12-19T04:26:19;102093.75;;;-5.79;99.76
68634;BME280;55625;47.072;22.192;2022-12-19T04:29:05;102099.56;;;-5.81;99.66
68634;BME280;55625;47.072;22.192;2022-12-19T04:31:32;102107.56;;;-5.84;99.41
68634;BME280;55625;47.072;22.192;2022-12-19T04:34:00;102094.84;;;-5.80;100.00
68634;BME280;55625;47.072;22.192;2022-12-19T04:36:27;102094.78;;;-5.70;100.00
68634;BME280;55625;47.072;22.192;2022-12-19T04:38:53;102090.00;;;-5.59;100.00
68634;BME280;55625;47.072;22.192;2022-12-19T04:41:18;102084.72;;;-5.51;100.00
68634;BME280;55625;47.072;22.192;2022-12-19T04:43:44;102089.03;;;-5.40;100.00
68634;BME280;55625;47.072;22.192;2022-12-19T04:46:10;102087.31;;;-5.31;100.00
68634;BME280;55625;47.072;22.192;2022-12-19T04:48:36;102084.78;;;-5.27;100.00
68634;BME280;55625;47.072;22.192;2022-12-19T04:51:02;102086.38;;;-5.21;100.00
68634;BME280;55625;47.072;22.192;2022-12-19T04:53:28;102082.81;;;-5.21;100.00
68634;BME280;55625;47.072;22.192;2022-12-19T04:56:03;102086.38;;;-5.21;100.00
68634;BME280;55625;47.072;22.192;2022-12-19T04:58:29;102089.44;;;-5.17;100.00
68634;BME280;55625;47.072;22.192;2022-12-19T05:01:03;102084.91;;;-5.08;100.00
68634;BME280;55625;47.072;22.192;2022-12-19T05:03:30;102086.03;;;-5.09;99.67
68634;BME280;55625;47.072;22.192;2022-12-19T05:06:12;102082.09;;;-5.03;99.32
68634;BME280;55625;47.072;22.192;2022-12-19T05:08:41;102082.38;;;-5.05;98.83
68634;BME280;55625;47.072;22.192;2022-12-19T05:11:13;102077.63;;;-4.99;98.83
68634;BME280;55625;47.072;22.192;2022-12-19T05:13:39;102082.59;;;-4.96;98.62
68634;BME280;55625;47.072;22.192;2022-12-19T05:16:08;102085.03;;;-4.89;98.43
68634;BME280;55625;47.072;22.192;2022-12-19T05:18:36;102074.78;;;-4.89;98.37
68634;BME280;55625;47.072;22.192;2022-12-19T05:21:03;102085.28;;;-4.86;98.12
68634;BME280;55625;47.072;22.192;2022-12-19T05:23:29;102083.91;;;-4.88;98.21
68634;BME280;55625;47.072;22.192;2022-12-19T05:25:59;102083.09;;;-4.89;98.36
68634;BME280;55625;47.072;22.192;2022-12-19T05:28:25;102080.59;;;-4.90;98.00
68634;BME280;55625;47.072;22.192;2022-12-19T05:30:51;102075.34;;;-4.92;97.85
68634;BME280;55625;47.072;22.192;2022-12-19T05:33:17;102080.34;;;-4.94;98.03
68634;BME280;55625;47.072;22.192;2022-12-19T05:35:43;102081.22;;;-4.98;97.55
68634;BME280;55625;47.072;22.192;2022-12-19T05:38:09;102075.97;;;-5.00;97.59
68634;BME280;55625;47.072;22.192;2022-12-19T05:40:34;102079.28;;;-4.98;98.24
68634;BME280;55625;47.072;22.192;2022-12-19T05:43:00;102080.63;;;-4.95;97.96
68634;BME280;55625;47.072;22.192;2022-12-19T05:45:26;102084.22;;;-4.95;98.63
68634;BME280;55625;47.072;22.192;2022-12-19T05:47:52;102085.88;;;-4.94;98.57
68634;BME280;55625;47.072;22.192;2022-12-19T05:50:18;102075.63;;;-4.93;98.64
68634;BME280;55625;47.072;22.192;2022-12-19T05:52:43;102087.28;;;-4.96;98.39
68634;BME280;55625;47.072;22.192;2022-12-19T05:55:10;102085.09;;;-5.00;97.99
68634;BME280;55625;47.072;22.192;2022-12-19T05:57:36;102086.81;;;-5.04;98.27
68634;BME280;55625;47.072;22.192;2022-12-19T06:00:04;102088.56;;;-5.13;97.96
68634;BME280;55625;47.072;22.192;2022-12-19T06:02:33;102083.03;;;-5.13;98.19
68634;BME280;55625;47.072;22.192;2022-12-19T06:04:59;102085.56;;;-5.16;98.49
68634;BME280;55625;47.072;22.192;2022-12-19T06:07:24;102092.78;;;-5.20;97.82
68634;BME280;55625;47.072;22.192;2022-12-19T06:09:50;102087.25;;;-5.20;97.58
68634;BME280;55625;47.072;22.192;2022-12-19T06:12:16;102080.63;;;-5.24;97.39
68634;BME280;55625;47.072;22.192;2022-12-19T06:14:42;102088.13;;;-5.30;97.50
68634;BME280;55625;47.072;22.192;2022-12-19T06:17:08;102083.47;;;-5.35;97.69
68634;BME280;55625;47.072;22.192;2022-12-19T06:19:34;102086.47;;;-5.31;97.47
68634;BME280;55625;47.072;22.192;2022-12-19T06:21:59;102088.97;;;-5.29;97.50
68634;BME280;55625;47.072;22.192;2022-12-19T06:24:25;102086.72;;;-5.27;96.97
68634;BME280;55625;47.072;22.192;2022-12-19T06:26:51;102093.09;;;-5.27;97.10
68634;BME280;55625;47.072;22.192;2022-12-19T06:29:17;102099.44;;;-5.26;97.13
68634;BME280;55625;47.072;22.192;2022-12-19T06:31:43;102089.50;;;-5.27;97.22
68634;BME280;55625;47.072;22.192;2022-12-19T06:34:09;102091.44;;;-5.28;97.10
68634;BME280;55625;47.072;22.192;2022-12-19T06:36:36;102100.53;;;-5.22;97.46
68634;BME280;55625;47.072;22.192;2022-12-19T06:39:02;102106.06;;;-5.22;97.38
68634;BME280;55625;47.072;22.192;2022-12-19T06:41:29;102104.69;;;-5.20;97.64
68634;BME280;55625;47.072;22.192;2022-12-19T06:44:15;102108.81;;;-5.17;97.21
68634;BME280;55625;47.072;22.192;2022-12-19T06:46:42;102100.47;;;-5.12;97.61
68634;BME280;55625;47.072;22.192;2022-12-19T06:49:09;102102.94;;;-5.11;97.32
68634;BME280;55625;47.072;22.192;2022-12-19T06:51:36;102102.63;;;-5.09;98.00
68634;BME280;55625;47.072;22.192;2022-12-19T06:54:02;102113.13;;;-5.06;97.75
68634;BME280;55625;47.072;22.192;2022-12-19T06:56:33;102116.97;;;-5.02;97.63
68634;BME280;55625;47.072;22.192;2022-12-19T06:58:59;102109.78;;;-5.03;96.55
68634;BME280;55625;47.072;22.192;2022-12-19T07:04:40;102120.28;;;-5.00;97.59
68634;BME280;55625;47.072;22.192;2022-12-19T07:07:08;102123.81;;;-4.89;96.71
68634;BME280;55625;47.072;22.192;2022-12-19T07:09:34;102137.06;;;-4.91;96.72
68634;BME280;55625;47.072;22.192;2022-12-19T07:12:00;102132.94;;;-4.89;96.88
68634;BME280;55625;47.072;22.192;2022-12-19T07:14:27;102134.00;;;-4.85;96.58
68634;BME280;55625;47.072;22.192;2022-12-19T07:16:53;102127.94;;;-4.87;97.62
68634;BME280;55625;47.072;22.192;2022-12-19T07:19:20;102144.00;;;-4.89;97.72
68634;BME280;55625;47.072;22.192;2022-12-19T07:21:47;102137.31;;;-4.83;97.67
68634;BME280;55625;47.072;22.192;2022-12-19T07:24:13;102139.19;;;-4.78;97.40
68634;BME280;55625;47.072;22.192;2022-12-19T07:26:41;102144.97;;;-4.75;97.81
68634;BME280;55625;47.072;22.192;2022-12-19T07:29:08;102142.44;;;-4.71;97.85
68634;BME280;55625;47.072;22.192;2022-12-19T07:31:35;102135.50;;;-4.69;98.26
68634;BME280;55625;47.072;22.192;2022-12-19T07:34:00;102133.78;;;-4.64;98.32
68634;BME280;55625;47.072;22.192;2022-12-19T07:36:26;102137.06;;;-4.57;97.80
68634;BME280;55625;47.072;22.192;2022-12-19T07:38:52;102139.78;;;-4.52;99.32
68634;BME280;55625;47.072;22.192;2022-12-19T07:41:18;102138.91;;;-4.48;99.19
68634;BME280;55625;47.072;22.192;2022-12-19T07:43:44;102131.88;;;-4.40;99.03
68634;BME280;55625;47.072;22.192;2022-12-19T07:46:10;102128.75;;;-4.33;98.30
68634;BME280;55625;47.072;22.192;2022-12-19T07:48:36;102133.97;;;-4.27;99.00
68634;BME280;55625;47.072;22.192;2022-12-19T07:51:02;102148.84;;;-4.18;98.77
68634;BME280;55625;47.072;22.192;2022-12-19T07:53:29;102137.63;;;-4.08;98.16
68634;BME280;55625;47.072;22.192;2022-12-19T07:55:55;102136.69;;;-3.98;97.07
68634;BME280;55625;47.072;22.192;2022-12-19T07:58:21;102150.13;;;-3.86;96.60
68634;BME280;55625;47.072;22.192;2022-12-19T08:00:58;102137.00;;;-3.81;96.97
68634;BME280;55625;47.072;22.192;2022-12-19T08:03:25;102142.47;;;-3.76;96.86
68634;BME280;55625;47.072;22.192;2022-12-19T08:05:51;102139.94;;;-3.72;97.74
68634;BME280;55625;47.072;22.192;2022-12-19T08:08:17;102145.38;;;-3.62;98.08
68634;BME280;55625;47.072;22.192;2022-12-19T08:10:43;102132.25;;;-3.56;96.56
68634;BME280;55625;47.072;22.192;2022-12-19T08:13:09;102147.31;;;-3.44;97.02
68634;BME280;55625;47.072;22.192;2022-12-19T08:15:35;102137.25;;;-3.39;96.78
68634;BME280;55625;47.072;22.192;2022-12-19T08:18:00;102141.03;;;-3.30;96.58
68634;BME280;55625;47.072;22.192;2022-12-19T08:20:27;102147.84;;;-3.23;96.26
68634;BME280;55625;47.072;22.192;2022-12-19T08:22:53;102137.41;;;-3.12;95.98
68634;BME280;55625;47.072;22.192;2022-12-19T08:25:19;102135.91;;;-3.04;96.10
68634;BME280;55625;47.072;22.192;2022-12-19T08:27:44;102141.28;;;-2.94;96.16
68634;BME280;55625;47.072;22.192;2022-12-19T08:30:11;102141.31;;;-2.81;95.97
68634;BME280;55625;47.072;22.192;2022-12-19T08:32:38;102141.69;;;-2.68;95.03
68634;BME280;55625;47.072;22.192;2022-12-19T08:35:06;102144.78;;;-2.56;93.86
68634;BME280;55625;47.072;22.192;2022-12-19T08:37:32;102148.75;;;-2.43;94.21
68634;BME280;55625;47.072;22.192;2022-12-19T08:39:58;102157.41;;;-2.31;92.22
68634;BME280;55625;47.072;22.192;2022-12-19T08:42:24;102149.88;;;-2.17;92.94
68634;BME280;55625;47.072;22.192;2022-12-19T08:44:50;102148.38;;;-2.09;91.99
68634;BME280;55625;47.072;22.192;2022-12-19T08:47:15;102146.50;;;-2.00;90.62
68634;BME280;55625;47.072;22.192;2022-12-19T08:49:41;102154.13;;;-1.92;90.69
68634;BME280;55625;47.072;22.192;2022-12-19T08:52:07;102153.31;;;-1.79;90.10
68634;BME280;55625;47.072;22.192;2022-12-19T08:54:33;102146.50;;;-1.73;89.26
68634;BME280;55625;47.072;22.192;2022-12-19T08:56:59;102141.91;;;-1.55;89.50
68634;BME280;55625;47.072;22.192;2022-12-19T08:59:24;102132.41;;;-1.40;88.08
68634;BME280;55625;47.072;22.192;2022-12-19T09:01:50;102141.03;;;-1.28;86.58
68634;BME280;55625;47.072;22.192;2022-12-19T09:04:16;102128.34;;;-1.20;84.78
68634;BME280;55625;47.072;22.192;2022-12-19T09:06:42;102134.63;;;-1.15;84.52
68634;BME280;55625;47.072;22.192;2022-12-19T09:09:08;102122.91;;;-1.03;84.31
68634;BME280;55625;47.072;22.192;2022-12-19T09:11:34;102117.38;;;-0.95;82.43
68634;BME280;55625;47.072;22.192;2022-12-19T09:14:00;102114.66;;;-0.86;82.27
68634;BME280;55625;47.072;22.192;2022-12-19T09:16:27;102114.91;;;-0.74;84.19
68634;BME280;55625;47.072;22.192;2022-12-19T09:18:55;102117.09;;;-0.62;82.98
68634;BME280;55625;47.072;22.192;2022-12-19T09:21:26;102113.28;;;-0.44;81.65
68634;BME280;55625;47.072;22.192;2022-12-19T09:23:57;102110.84;;;-0.37;81.32
68634;BME280;55625;47.072;22.192;2022-12-19T09:26:24;102109.19;;;-0.38;80.99
68634;BME280;55625;47.072;22.192;2022-12-19T09:28:51;102109.44;;;-0.25;81.69
68634;BME280;55625;47.072;22.192;2022-12-19T09:31:22;102108.81;;;-0.14;81.99
68634;BME280;55625;47.072;22.192;2022-12-19T09:33:51;102105.59;;;0.02;81.39
68634;BME280;55625;47.072;22.192;2022-12-19T09:36:23;102104.00;;;0.18;81.15
68634;BME280;55625;47.072;22.192;2022-12-19T09:38:52;102101.38;;;0.30;79.27
68634;BME280;55625;47.072;22.192;2022-12-19T09:42:00;102105.69;;;0.45;79.47
68634;BME280;55625;47.072;22.192;2022-12-19T09:45:24;102095.38;;;0.63;79.16
68634;BME280;55625;47.072;22.192;2022-12-19T09:47:56;102093.69;;;0.87;78.99
68634;BME280;55625;47.072;22.192;2022-12-19T09:50:49;102093.03;;;1.08;78.06
68634;BME280;55625;47.072;22.192;2022-12-19T09:53:28;102095.47;;;1.18;76.36
68634;BME280;55625;47.072;22.192;2022-12-19T09:55:57;102096.63;;;1.34;76.20
68634;BME280;55625;47.072;22.192;2022-12-19T09:59:03;102095.72;;;1.51;75.82
68634;BME280;55625;47.072;22.192;2022-12-19T10:01:55;102088.00;;;1.57;73.60
68634;BME280;55625;47.072;22.192;2022-12-19T10:04:26;102083.53;;;1.64;74.05
68634;BME280;55625;47.072;22.192;2022-12-19T10:06:54;102078.91;;;1.68;73.34
68634;BME280;55625;47.072;22.192;2022-12-19T10:09:29;102081.34;;;1.70;73.30
68634;BME280;55625;47.072;22.192;2022-12-19T10:12:21;102079.66;;;1.86;74.16
68634;BME280;55625;47.072;22.192;2022-12-19T10:15:13;102077.13;;;1.93;73.89
68634;BME280;55625;47.072;22.192;2022-12-19T10:21:59;102066.00;;;1.84;72.17
68634;BME280;55625;47.072;22.192;2022-12-19T10:30:18;102057.81;;;2.00;70.61
68634;BME280;55625;47.072;22.192;2022-12-19T10:33:17;102063.22;;;2.35;69.09
68634;BME280;55625;47.072;22.192;2022-12-19T10:35:54;102051.88;;;2.52;68.66
68634;BME280;55625;47.072;22.192;2022-12-19T10:41:27;102049.06;;;3.06;67.85
68634;BME280;55625;47.072;22.192;2022-12-19T10:44:05;102043.03;;;3.16;64.15
68634;BME280;55625;47.072;22.192;2022-12-19T10:46:44;102040.72;;;3.30;65.78
68634;BME280;55625;47.072;22.192;2022-12-19T10:49:35;102038.91;;;3.47;62.90
68634;BME280;55625;47.072;22.192;2022-12-19T10:52:05;102024.75;;;3.55;62.69
68634;BME280;55625;47.072;22.192;2022-12-19T10:57:17;102018.91;;;3.48;59.17
68634;BME280;55625;47.072;22.192;2022-12-19T11:00:13;102020.19;;;3.51;60.00
68634;BME280;55625;47.072;22.192;2022-12-19T11:02:44;102022.78;;;3.68;62.25
68634;BME280;55625;47.072;22.192;2022-12-19T11:05:29;102012.50;;;3.72;62.72
68634;BME280;55625;47.072;22.192;2022-12-19T11:10:50;102030.75;;;4.02;61.66
68634;BME280;55625;47.072;22.192;2022-12-19T11:16:01;102031.16;;;4.41;60.43
68634;BME280;55625;47.072;22.192;2022-12-19T11:18:42;102029.09;;;4.54;61.31
68634;BME280;55625;47.072;22.192;2022-12-19T11:21:30;102026.16;;;4.62;59.63
68634;BME280;55625;47.072;22.192;2022-12-19T11:31:42;102003.06;;;4.97;57.81
68634;BME280;55625;47.072;22.192;2022-12-19T11:34:22;102007.13;;;4.99;59.02
68634;BME280;55625;47.072;22.192;2022-12-19T11:39:41;102010.13;;;4.91;58.83
68634;BME280;55625;47.072;22.192;2022-12-19T11:45:14;102006.59;;;5.10;59.61
68634;BME280;55625;47.072;22.192;2022-12-19T11:48:16;101995.00;;;5.11;57.55
68634;BME280;55625;47.072;22.192;2022-12-19T11:53:33;101961.94;;;5.08;59.81
68634;BME280;55625;47.072;22.192;2022-12-19T11:56:10;101958.94;;;5.01;59.71
68634;BME280;55625;47.072;22.192;2022-12-19T11:58:37;101955.22;;;4.97;60.64
68634;BME280;55625;47.072;22.192;2022-12-19T12:06:55;101974.66;;;4.74;59.80
68634;BME280;55625;47.072;22.192;2022-12-19T12:12:18;101976.47;;;4.66;60.59
68634;BME280;55625;47.072;22.192;2022-12-19T12:17:47;101981.41;;;4.17;61.37
68634;BME280;55625;47.072;22.192;2022-12-19T12:20:41;101979.31;;;4.14;62.62
68634;BME280;55625;47.072;22.192;2022-12-19T12:23:34;101970.31;;;4.09;62.37
68634;BME280;55625;47.072;22.192;2022-12-19T12:26:21;101976.66;;;3.93;62.83
68634;BME280;55625;47.072;22.192;2022-12-19T12:32:06;101974.91;;;3.89;62.73
68634;BME280;55625;47.072;22.192;2022-12-19T12:38:05;101971.16;;;3.85;64.23
68634;BME280;55625;47.072;22.192;2022-12-19T12:46:19;101984.38;;;3.23;65.76
68634;BME280;55625;47.072;22.192;2022-12-19T12:49:01;101972.91;;;3.16;67.01
68634;BME280;55625;47.072;22.192;2022-12-19T12:51:30;101972.44;;;3.26;65.27
68634;BME280;55625;47.072;22.192;2022-12-19T12:54:11;101958.06;;;3.16;65.69
68634;BME280;55625;47.072;22.192;2022-12-19T12:56:40;101954.66;;;3.10;67.61
68634;BME280;55625;47.072;22.192;2022-12-19T12:59:24;101959.09;;;3.11;66.92
68634;BME280;55625;47.072;22.192;2022-12-19T13:04:35;101954.56;;;3.06;66.61
68634;BME280;55625;47.072;22.192;2022-12-19T13:07:22;101953.09;;;3.00;65.26
68634;BME280;55625;47.072;22.192;2022-12-19T13:15:34;101938.81;;;2.81;66.81
68634;BME280;55625;47.072;22.192;2022-12-19T13:18:34;101946.84;;;2.70;67.49
68634;BME280;55625;47.072;22.192;2022-12-19T13:21:05;101942.47;;;2.28;72.63
68634;BME280;55625;47.072;22.192;2022-12-19T13:26:02;101936.66;;;1.91;74.32
68634;BME280;55625;47.072;22.192;2022-12-19T13:34:09;101939.78;;;1.69;75.99
68634;BME280;55625;47.072;22.192;2022-12-19T13:40:01;101954.06;;;1.46;77.05
68634;BME280;55625;47.072;22.192;2022-12-19T13:42:34;101947.41;;;1.21;77.94
68634;BME280;55625;47.072;22.192;2022-12-19T13:45:26;101952.38;;;1.24;77.94
68634;BME280;55625;47.072;22.192;2022-12-19T13:47:59;101947.41;;;1.21;78.54
68634;BME280;55625;47.072;22.192;2022-12-19T13:50:34;101952.03;;;1.17;79.21
68634;BME280;55625;47.072;22.192;2022-12-19T13:53:01;101952.88;;;1.18;79.15
68634;BME280;55625;47.072;22.192;2022-12-19T13:55:28;101947.94;;;1.15;80.03
68634;BME280;55625;47.072;22.192;2022-12-19T13:57:55;101946.31;;;1.14;79.47
68634;BME280;55625;47.072;22.192;2022-12-19T14:00:39;101947.34;;;1.01;80.17
68634;BME280;55625;47.072;22.192;2022-12-19T14:03:16;101950.66;;;0.94;81.18
68634;BME280;55625;47.072;22.192;2022-12-19T14:05:43;101944.91;;;0.90;81.19
68634;BME280;55625;47.072;22.192;2022-12-19T14:08:16;101953.16;;;0.78;82.50
68634;BME280;55625;47.072;22.192;2022-12-19T14:10:46;101954.31;;;0.77;82.07
68634;BME280;55625;47.072;22.192;2022-12-19T14:13:18;101946.28;;;0.67;82.10
68634;BME280;55625;47.072;22.192;2022-12-19T14:16:03;101951.41;;;0.65;82.58
68634;BME280;55625;47.072;22.192;2022-12-19T14:18:32;101951.88;;;0.58;83.14
68634;BME280;55625;47.072;22.192;2022-12-19T14:21:21;101952.53;;;0.55;81.91
68634;BME280;55625;47.072;22.192;2022-12-19T14:23:47;101957.63;;;0.53;82.55
68634;BME280;55625;47.072;22.192;2022-12-19T14:26:29;101942.22;;;0.47;83.55
68634;BME280;55625;47.072;22.192;2022-12-19T14:29:06;101945.19;;;0.42;84.12
68634;BME280;55625;47.072;22.192;2022-12-19T14:31:36;101942.22;;;0.39;84.17
68634;BME280;55625;47.072;22.192;2022-12-19T14:34:04;101937.78;;;0.29;84.11
68634;BME280;55625;47.072;22.192;2022-12-19T14:36:32;101935.66;;;0.17;84.99
68634;BME280;55625;47.072;22.192;2022-12-19T14:38:59;101932.06;;;0.08;85.50
68634;BME280;55625;47.072;22.192;2022-12-19T14:44:14;101937.81;;;0.03;85.36
68634;BME280;55625;47.072;22.192;2022-12-19T14:46:40;101946.84;;;0.00;85.55
68634;BME280;55625;47.072;22.192;2022-12-19T14:49:32;101932.19;;;-0.06;85.59
68634;BME280;55625;47.072;22.192;2022-12-19T14:52:03;101924.00;;;-0.11;85.59
68634;BME280;55625;47.072;22.192;2022-12-19T14:54:29;101927.59;;;-0.19;86.44
68634;BME280;55625;47.072;22.192;2022-12-19T14:56:59;101931.53;;;-0.28;86.79
68634;BME280;55625;47.072;22.192;2022-12-19T14:59:42;101921.81;;;-0.40;86.43